Time;durP1;ratioP1;P1;durP2;ratioP2;P2;SDS_P1;SDS_P2;PMS_P1;PMS_P2;Temp;Humidity;BMP_temperature;BMP_pressure;BME280_temperature;BME280_humidity;BME280_pressure;Samples;Min_cycle;Max_cycle;Signal;HPM_P1;HPM_P2
2023/09/14 00:00:29;;;;;;;;;;;15.00;87.00;;;;;;5031491;28;19943;-89
2023/09/14 00:02:55;;;;;;;;;;;15.00;87.40;;;;;;5007618;28;19920;-89
2023/09/14 00:05:20;;;;;;;;;;;14.90;87.40;;;;;;5006019;28;19935;-89
2023/09/14 00:07:46;;;;;;;;;;;14.90;87.70;;;;;;5033316;28;20275;-89
2023/09/14 00:10:11;;;;;;;;;;;15.00;87.70;;;;;;5007865;28;19963;-89
2023/09/14 00:12:36;;;;;;;;;;;15.00;87.30;;;;;;5012806;28;19921;-88
2023/09/14 00:15:02;;;;;;;;;;;14.90;86.90;;;;;;5013533;28;19979;-88
2023/09/14 00:17:28;;;;;;;;;;;14.90;86.90;;;;;;5018474;28;19912;-89
2023/09/14 00:19:53;;;;;;;;;;;14.80;87.20;;;;;;5018227;28;19913;-88
2023/09/14 00:22:19;;;;;;;;;;;14.80;87.50;;;;;;5037387;28;19925;-87
2023/09/14 00:24:44;;;;;;;;;;;14.80;87.70;;;;;;5014025;28;19917;-88
2023/09/14 00:27:09;;;;;;;;;;;14.80;87.60;;;;;;5012997;28;19913;-88
2023/09/14 00:29:35;;;;;;;;;;;15.00;87.40;;;;;;5019599;28;20421;-89
2023/09/14 00:32:01;;;;;;;;;;;14.80;87.50;;;;;;5016046;28;20382;-88
2023/09/14 00:34:26;;;;;;;;;;;14.80;87.80;;;;;;5016109;28;19920;-88
2023/09/14 00:36:52;;;;;;;;;;;14.70;87.80;;;;;;5008594;28;20004;-88
2023/09/14 00:39:17;;;;;;;;;;;14.70;88.00;;;;;;5015249;28;19967;-88
2023/09/14 00:41:43;;;;;;;;;;;14.70;87.80;;;;;;5019148;28;19920;-88
2023/09/14 00:44:08;;;;;;;;;;;14.70;87.80;;;;;;5022403;28;19920;-88
2023/09/14 00:46:34;;;;;;;;;;;14.70;87.40;;;;;;5011816;28;19917;-88
2023/09/14 00:49:00;;;;;;;;;;;14.80;87.30;;;;;;5029124;28;19914;-88
2023/09/14 00:51:27;;;;;;;;;;;14.80;87.50;;;;;;5035489;28;19936;-88
2023/09/14 00:53:53;;;;;;;;;;;14.70;87.20;;;;;;5018620;28;19921;-88
2023/09/14 00:56:19;;;;;;;;;;;14.60;87.40;;;;;;5014976;28;19919;-87
2023/09/14 00:58:46;;;;;;;;;;;14.60;87.20;;;;;;5014151;28;19913;-88
2023/09/14 01:01:14;;;;;;;;;;;14.50;87.20;;;;;;5034752;28;19913;-88
2023/09/14 01:03:40;;;;;;;;;;;14.50;87.70;;;;;;5023703;28;19972;-87
2023/09/14 01:06:06;;;;;;;;;;;14.40;87.80;;;;;;5019408;28;19920;-88
2023/09/14 01:08:31;;;;;;;;;;;14.40;87.60;;;;;;5034737;28;20359;-89
2023/09/14 01:10:57;;;;;;;;;;;14.40;87.50;;;;;;5021836;28;20484;-89
2023/09/14 01:13:34;;;;;;;;;;;14.40;87.70;;;;;;5018808;28;20092;-88
2023/09/14 01:16:07;;;;;;;;;;;14.40;87.70;;;;;;5020781;28;19913;-89
2023/09/14 01:18:40;;;;;;;;;;;14.40;87.30;;;;;;5028325;28;19913;-89
2023/09/14 01:21:20;;;;;;;;;;;14.50;87.40;;;;;;5014662;28;19917;-89
2023/09/14 01:23:57;;;;;;;;;;;14.40;87.20;;;;;;5053254;28;19917;-88
2023/09/14 01:26:23;;;;;;;;;;;14.40;87.10;;;;;;5018848;28;20464;-88
2023/09/14 01:28:48;;;;;;;;;;;14.30;87.10;;;;;;5030358;28;19917;-88
2023/09/14 01:31:14;;;;;;;;;;;14.30;87.20;;;;;;5022601;28;19920;-88
2023/09/14 01:33:41;;;;;;;;;;;14.30;87.30;;;;;;5017739;28;19917;-88
2023/09/14 01:36:41;;;;;;;;;;;14.30;86.90;;;;;;5020941;28;19913;-88
2023/09/14 01:39:07;;;;;;;;;;;14.20;86.90;;;;;;5012473;28;19944;-87
2023/09/14 01:41:34;;;;;;;;;;;14.30;87.10;;;;;;5032944;28;20393;-88
2023/09/14 01:43:59;;;;;;;;;;;14.20;87.10;;;;;;5033035;28;20371;-88
2023/09/14 01:46:25;;;;;;;;;;;14.20;87.20;;;;;;5015701;28;19913;-88
2023/09/14 01:48:51;;;;;;;;;;;14.20;87.30;;;;;;5036229;28;20299;-89
2023/09/14 01:51:16;;;;;;;;;;;14.20;87.30;;;;;;5014183;28;19940;-89
2023/09/14 01:53:42;;;;;;;;;;;14.20;87.80;;;;;;5007682;28;19959;-88
2023/09/14 01:56:07;;;;;;;;;;;14.10;87.40;;;;;;5018355;28;20298;-88
2023/09/14 01:58:33;;;;;;;;;;;14.20;87.40;;;;;;5018424;28;19913;-87
2023/09/14 02:00:58;;;;;;;;;;;14.20;87.50;;;;;;5022376;28;19920;-88
2023/09/14 02:03:24;;;;;;;;;;;14.20;87.70;;;;;;5025717;28;20166;-88
2023/09/14 02:05:56;;;;;;;;;;;14.10;87.60;;;;;;5025480;28;19946;-88
2023/09/14 02:08:22;;;;;;;;;;;14.20;87.00;;;;;;5023407;28;19912;-88
2023/09/14 02:10:47;;;;;;;;;;;14.20;87.20;;;;;;5023306;28;19944;-88
2023/09/14 02:13:13;;;;;;;;;;;14.20;87.10;;;;;;5038748;28;20325;-88
2023/09/14 02:15:38;;;;;;;;;;;14.20;87.40;;;;;;5020018;28;20352;-88
2023/09/14 02:18:04;;;;;;;;;;;14.20;86.70;;;;;;5017809;28;20355;-87
2023/09/14 02:20:29;;;;;;;;;;;14.10;87.10;;;;;;5017516;28;19913;-87
2023/09/14 02:22:55;;;;;;;;;;;14.10;87.20;;;;;;5019827;28;19917;-87
2023/09/14 02:25:20;;;;;;;;;;;14.10;87.10;;;;;;5037572;28;19913;-88
2023/09/14 02:27:45;;;;;;;;;;;14.00;87.30;;;;;;5028111;28;20294;-87
2023/09/14 02:30:11;;;;;;;;;;;14.10;87.30;;;;;;5016063;28;20369;-89
2023/09/14 02:32:36;;;;;;;;;;;14.10;86.20;;;;;;5037046;28;20408;-89
2023/09/14 02:35:02;;;;;;;;;;;14.00;85.80;;;;;;5032376;28;19921;-88
2023/09/14 02:37:27;;;;;;;;;;;13.80;86.20;;;;;;5020660;28;19956;-89
2023/09/14 02:39:53;;;;;;;;;;;13.80;86.80;;;;;;5025943;28;19917;-88
2023/09/14 02:42:18;;;;;;;;;;;13.80;86.70;;;;;;5019478;28;19920;-88
2023/09/14 02:44:44;;;;;;;;;;;13.80;86.90;;;;;;5022127;28;19917;-88
2023/09/14 02:47:09;;;;;;;;;;;13.80;86.90;;;;;;5011723;28;19913;-89
2023/09/14 02:49:34;;;;;;;;;;;13.90;86.60;;;;;;5012445;28;20352;-89
2023/09/14 02:52:00;;;;;;;;;;;13.80;86.60;;;;;;5018213;28;19913;-88
2023/09/14 02:54:25;;;;;;;;;;;13.80;87.00;;;;;;5019142;28;19963;-88
2023/09/14 02:56:51;;;;;;;;;;;13.70;87.20;;;;;;5019789;28;19916;-87
2023/09/14 02:59:16;;;;;;;;;;;13.70;87.50;;;;;;5029280;28;19916;-88
2023/09/14 03:01:42;;;;;;;;;;;13.80;87.30;;;;;;5020095;28;19913;-89
2023/09/14 03:04:08;;;;;;;;;;;13.90;86.70;;;;;;5010515;28;20008;-88
2023/09/14 03:06:34;;;;;;;;;;;13.90;85.80;;;;;;5025046;28;20003;-88
2023/09/14 03:08:59;;;;;;;;;;;13.80;86.30;;;;;;5032339;28;19916;-89
2023/09/14 03:11:25;;;;;;;;;;;13.70;86.60;;;;;;5021208;28;19920;-89
2023/09/14 03:13:51;;;;;;;;;;;13.80;86.70;;;;;;5036285;28;19924;-89
2023/09/14 03:16:16;;;;;;;;;;;13.70;87.10;;;;;;5021453;28;20301;-88
2023/09/14 03:18:41;;;;;;;;;;;13.60;87.30;;;;;;5024513;28;19921;-89
2023/09/14 03:21:20;;;;;;;;;;;13.60;87.40;;;;;;5024045;28;19917;-89
2023/09/14 03:23:45;;;;;;;;;;;13.70;87.10;;;;;;5016685;28;19924;-89
2023/09/14 03:26:13;;;;;;;;;;;13.60;86.50;;;;;;5012712;28;19913;-89
2023/09/14 03:28:38;;;;;;;;;;;13.60;86.10;;;;;;5012943;28;19921;-89
2023/09/14 03:31:04;;;;;;;;;;;13.50;86.80;;;;;;5027544;28;20425;-90
2023/09/14 03:33:29;;;;;;;;;;;13.60;86.40;;;;;;5036706;28;20477;-89
2023/09/14 03:35:55;;;;;;;;;;;13.50;86.80;;;;;;5022874;28;19919;-89
2023/09/14 03:38:20;;;;;;;;;;;13.50;87.20;;;;;;5019771;28;20011;-90
2023/09/14 03:40:46;;;;;;;;;;;13.50;87.50;;;;;;5023097;28;19917;-88
2023/09/14 03:43:11;;;;;;;;;;;13.50;87.20;;;;;;5018928;28;20317;-88
2023/09/14 03:45:37;;;;;;;;;;;13.50;87.60;;;;;;5019007;28;20357;-90
2023/09/14 03:48:04;;;;;;;;;;;13.60;87.50;;;;;;5010392;28;20278;-89
2023/09/14 03:50:30;;;;;;;;;;;13.50;87.50;;;;;;5011164;28;19920;-89
2023/09/14 03:52:55;;;;;;;;;;;13.60;87.50;;;;;;5035918;28;19913;-90
2023/09/14 03:55:21;;;;;;;;;;;13.60;87.60;;;;;;5017715;28;20007;-88
2023/09/14 03:57:47;;;;;;;;;;;13.60;87.60;;;;;;5047357;28;19948;-89
2023/09/14 04:00:16;;;;;;;;;;;13.80;88.00;;;;;;5027948;28;19913;-89
2023/09/14 04:02:42;;;;;;;;;;;13.80;88.00;;;;;;5015653;28;19963;-89
2023/09/14 04:05:14;;;;;;;;;;;13.70;88.00;;;;;;5024044;28;20370;-89
2023/09/14 04:07:40;;;;;;;;;;;13.90;87.50;;;;;;5013886;28;19928;-88
2023/09/14 04:10:09;;;;;;;;;;;13.90;87.60;;;;;;5024286;28;19913;-89
2023/09/14 04:12:36;;;;;;;;;;;14.00;87.50;;;;;;5041165;28;19924;-90
2023/09/14 04:15:01;;;;;;;;;;;14.10;87.00;;;;;;5021067;28;20332;-88
2023/09/14 04:17:28;;;;;;;;;;;14.10;87.00;;;;;;5022946;28;19920;-89
2023/09/14 04:19:53;;;;;;;;;;;14.10;86.70;;;;;;5009072;28;19917;-89
2023/09/14 04:22:19;;;;;;;;;;;14.10;87.00;;;;;;5018482;28;19971;-88
2023/09/14 04:24:44;;;;;;;;;;;14.10;86.60;;;;;;5037206;28;20012;-89
2023/09/14 04:27:10;;;;;;;;;;;14.10;86.70;;;;;;5019660;28;19913;-89
2023/09/14 04:29:35;;;;;;;;;;;14.10;86.70;;;;;;5015294;28;19914;-89
2023/09/14 04:32:00;;;;;;;;;;;14.20;86.50;;;;;;5030667;28;19920;-88
2023/09/14 04:34:26;;;;;;;;;;;14.20;86.20;;;;;;5019830;28;20418;-88
2023/09/14 04:36:52;;;;;;;;;;;14.20;86.20;;;;;;5027459;28;20395;-88
2023/09/14 04:39:18;;;;;;;;;;;14.20;86.20;;;;;;5017486;28;19927;-88
2023/09/14 04:41:43;;;;;;;;;;;14.20;86.90;;;;;;5021095;28;19913;-89
2023/09/14 04:44:09;;;;;;;;;;;14.10;87.00;;;;;;5014007;28;19924;-89
2023/09/14 04:46:34;;;;;;;;;;;14.20;87.70;;;;;;5021272;28;20297;-89
2023/09/14 04:49:00;;;;;;;;;;;14.20;87.20;;;;;;5017075;28;19917;-88
2023/09/14 04:51:26;;;;;;;;;;;14.10;87.10;;;;;;5032607;28;19919;-89
2023/09/14 04:53:52;;;;;;;;;;;14.20;87.10;;;;;;5020583;28;19917;-89
2023/09/14 04:56:18;;;;;;;;;;;14.20;87.70;;;;;;5036366;28;19920;-89
2023/09/14 04:58:44;;;;;;;;;;;14.20;87.50;;;;;;5019278;28;19920;-88
2023/09/14 05:01:09;;;;;;;;;;;14.20;88.00;;;;;;5019197;28;20015;-88
2023/09/14 05:03:35;;;;;;;;;;;14.30;87.80;;;;;;5031892;28;19925;-86
2023/09/14 05:06:02;;;;;;;;;;;14.30;87.30;;;;;;5016145;28;19917;-88
2023/09/14 05:08:28;;;;;;;;;;;14.30;87.10;;;;;;5011693;28;20452;-89
2023/09/14 05:10:53;;;;;;;;;;;14.40;87.00;;;;;;5030548;28;19917;-90
2023/09/14 05:13:20;;;;;;;;;;;14.40;86.80;;;;;;5021692;28;19987;-90
2023/09/14 05:15:46;;;;;;;;;;;14.40;87.10;;;;;;5036428;28;19913;-88
2023/09/14 05:18:11;;;;;;;;;;;14.30;87.50;;;;;;5035595;28;19917;-88
2023/09/14 05:20:41;;;;;;;;;;;14.30;87.10;;;;;;5029518;28;20008;-88
2023/09/14 05:23:06;;;;;;;;;;;14.30;86.80;;;;;;5040904;28;19929;-88
2023/09/14 05:25:31;;;;;;;;;;;14.40;86.80;;;;;;5031413;28;19988;-86
2023/09/14 05:27:57;;;;;;;;;;;14.30;87.20;;;;;;5017073;28;19959;-87
2023/09/14 05:30:24;;;;;;;;;;;14.30;87.20;;;;;;5015106;28;19928;-88
2023/09/14 05:32:50;;;;;;;;;;;14.30;87.70;;;;;;5018649;28;19987;-89
2023/09/14 05:35:16;;;;;;;;;;;14.20;87.70;;;;;;5023346;28;19953;-89
2023/09/14 05:37:41;;;;;;;;;;;14.30;87.70;;;;;;5015765;28;19914;-89
2023/09/14 05:40:09;;;;;;;;;;;14.50;86.60;;;;;;5010684;28;19917;-87
2023/09/14 05:42:37;;;;;;;;;;;14.40;87.20;;;;;;5018412;28;19998;-88
2023/09/14 05:45:06;;;;;;;;;;;14.40;86.90;;;;;;5039809;28;19920;-87
2023/09/14 05:47:31;;;;;;;;;;;14.40;87.20;;;;;;5030456;28;20034;-87
2023/09/14 05:49:57;;;;;;;;;;;14.40;87.30;;;;;;5015404;28;19917;-89
2023/09/14 05:52:23;;;;;;;;;;;14.30;87.30;;;;;;5024478;28;20405;-87
2023/09/14 05:54:49;;;;;;;;;;;14.40;87.30;;;;;;5014761;28;19996;-88
2023/09/14 05:57:14;;;;;;;;;;;14.50;87.20;;;;;;5028687;28;20448;-89
2023/09/14 05:59:40;;;;;;;;;;;14.50;86.80;;;;;;5026101;28;20385;-89
2023/09/14 06:02:05;;;;;;;;;;;14.50;86.70;;;;;;5018723;28;20000;-89
2023/09/14 06:04:31;;;;;;;;;;;14.60;87.00;;;;;;5015266;28;19945;-89
2023/09/14 06:06:57;;;;;;;;;;;14.70;87.00;;;;;;5028517;28;19920;-90
2023/09/14 06:09:22;;;;;;;;;;;14.60;87.00;;;;;;5019070;28;20333;-88
2023/09/14 06:11:47;;;;;;;;;;;14.60;87.20;;;;;;5031508;28;19913;-90
2023/09/14 06:14:13;;;;;;;;;;;14.70;87.40;;;;;;5017860;28;19945;-91
2023/09/14 06:16:38;;;;;;;;;;;14.70;87.60;;;;;;5015840;28;19960;-88
2023/09/14 06:19:04;;;;;;;;;;;14.80;87.50;;;;;;5022323;28;19924;-88
2023/09/14 06:21:29;;;;;;;;;;;14.80;87.20;;;;;;5020657;28;19920;-87
2023/09/14 06:23:55;;;;;;;;;;;14.80;87.20;;;;;;5025311;28;20413;-88
2023/09/14 06:26:20;;;;;;;;;;;14.90;87.10;;;;;;5046748;28;19991;-87
2023/09/14 06:28:46;;;;;;;;;;;14.90;87.30;;;;;;5048530;28;20286;-87
2023/09/14 06:31:11;;;;;;;;;;;14.80;87.00;;;;;;5024421;28;19929;-88
2023/09/14 06:33:37;;;;;;;;;;;14.70;86.80;;;;;;5027374;28;19913;-87
2023/09/14 06:36:02;;;;;;;;;;;14.80;86.80;;;;;;5041119;28;19928;-88
2023/09/14 06:38:28;;;;;;;;;;;14.90;87.20;;;;;;5010951;28;19920;-88
2023/09/14 06:40:53;;;;;;;;;;;15.00;87.30;;;;;;5026230;28;20283;-87
2023/09/14 06:43:19;;;;;;;;;;;15.00;86.90;;;;;;5032195;28;19916;-87
2023/09/14 06:45:44;;;;;;;;;;;15.10;87.00;;;;;;5044420;28;19921;-87
2023/09/14 06:48:10;;;;;;;;;;;15.00;86.30;;;;;;5029347;28;19916;-87
2023/09/14 06:50:35;;;;;;;;;;;15.00;86.10;;;;;;5025577;28;19913;-87
2023/09/14 06:53:01;;;;;;;;;;;15.00;86.60;;;;;;5044526;28;20011;-88
2023/09/14 06:55:26;;;;;;;;;;;15.00;86.00;;;;;;5019773;28;19912;-87
2023/09/14 06:57:52;;;;;;;;;;;15.00;86.10;;;;;;5030800;28;19982;-87
2023/09/14 07:00:21;;;;;;;;;;;15.20;86.50;;;;;;5039230;28;20459;-88
2023/09/14 07:02:47;;;;;;;;;;;15.20;86.20;;;;;;5023229;28;19921;-87
2023/09/14 07:05:13;;;;;;;;;;;15.10;86.00;;;;;;5029753;28;19944;-87
2023/09/14 07:07:39;;;;;;;;;;;15.20;85.90;;;;;;5047746;28;20324;-87
2023/09/14 07:10:08;;;;;;;;;;;15.30;86.10;;;;;;5050150;28;20006;-87
2023/09/14 07:12:34;;;;;;;;;;;15.30;86.00;;;;;;5027487;28;19913;-87
2023/09/14 07:15:00;;;;;;;;;;;15.50;86.00;;;;;;5055952;28;19914;-87
2023/09/14 07:17:25;;;;;;;;;;;15.50;85.90;;;;;;5020093;28;19913;-87
2023/09/14 07:19:50;;;;;;;;;;;15.60;85.50;;;;;;5030445;28;20000;-87
2023/09/14 07:22:17;;;;;;;;;;;15.60;85.20;;;;;;5036240;28;20389;-87
2023/09/14 07:24:46;;;;;;;;;;;15.60;85.20;;;;;;5029879;28;19909;-87
2023/09/14 07:27:12;;;;;;;;;;;15.50;85.30;;;;;;5025737;28;19918;-89
2023/09/14 07:29:38;;;;;;;;;;;15.50;85.10;;;;;;5028177;28;19909;-89
2023/09/14 07:32:03;;;;;;;;;;;15.50;85.40;;;;;;5023808;28;20361;-87
2023/09/14 07:34:29;;;;;;;;;;;15.50;85.40;;;;;;5041268;28;19960;-87
2023/09/14 07:36:55;;;;;;;;;;;15.60;85.40;;;;;;5035568;28;19921;-88
2023/09/14 07:39:20;;;;;;;;;;;15.60;85.60;;;;;;5032054;28;19939;-88
2023/09/14 07:41:46;;;;;;;;;;;15.60;85.00;;;;;;5054242;28;19916;-88
2023/09/14 07:44:13;;;;;;;;;;;15.60;85.20;;;;;;5038016;28;19981;-88
2023/09/14 07:46:42;;;;;;;;;;;15.60;85.30;;;;;;5039821;28;19913;-88
2023/09/14 07:49:07;;;;;;;;;;;15.60;84.90;;;;;;5032256;28;19913;-88
2023/09/14 07:51:33;;;;;;;;;;;15.60;85.80;;;;;;5035877;28;19916;-88
2023/09/14 07:53:59;;;;;;;;;;;15.70;84.90;;;;;;5032071;28;19909;-88
2023/09/14 07:56:25;;;;;;;;;;;15.90;84.60;;;;;;5023812;28;19917;-88
2023/09/14 07:58:52;;;;;;;;;;;15.80;83.90;;;;;;5050132;28;19996;-88
2023/09/14 08:01:18;;;;;;;;;;;15.80;84.60;;;;;;5049324;28;19958;-88
2023/09/14 08:03:44;;;;;;;;;;;15.70;84.10;;;;;;5039407;28;19956;-89
2023/09/14 08:06:09;;;;;;;;;;;15.70;83.90;;;;;;5027891;28;19901;-88
2023/09/14 08:08:35;;;;;;;;;;;15.70;84.20;;;;;;5031023;28;20445;-87
2023/09/14 08:11:00;;;;;;;;;;;15.80;83.60;;;;;;5025008;28;19916;-87
2023/09/14 08:13:26;;;;;;;;;;;15.80;83.80;;;;;;5039946;28;20278;-88
2023/09/14 08:15:51;;;;;;;;;;;15.80;83.70;;;;;;5028733;28;19971;-88
2023/09/14 08:18:18;;;;;;;;;;;15.80;84.50;;;;;;5040831;28;19912;-88
2023/09/14 08:20:44;;;;;;;;;;;16.00;83.30;;;;;;5032205;28;20214;-89
2023/09/14 08:23:10;;;;;;;;;;;16.00;83.00;;;;;;5017321;28;19943;-88
2023/09/14 08:25:43;;;;;;;;;;;15.90;82.90;;;;;;5027559;28;20379;-89
2023/09/14 08:28:10;;;;;;;;;;;16.00;83.00;;;;;;5026914;28;20003;-87
2023/09/14 08:30:39;;;;;;;;;;;16.00;83.70;;;;;;5023952;28;19917;-89
2023/09/14 08:33:05;;;;;;;;;;;16.00;83.70;;;;;;5016457;28;20004;-90
2023/09/14 08:35:31;;;;;;;;;;;16.20;82.60;;;;;;5028369;28;19971;-89
2023/09/14 08:37:57;;;;;;;;;;;16.10;82.00;;;;;;5016995;28;19956;-90
2023/09/14 08:40:23;;;;;;;;;;;16.10;82.90;;;;;;5020379;28;20421;-90
2023/09/14 08:42:53;;;;;;;;;;;16.20;82.00;;;;;;5023238;28;20386;-91
2023/09/14 08:45:21;;;;;;;;;;;16.30;82.10;;;;;;5016928;28;19913;-90
2023/09/14 08:47:47;;;;;;;;;;;16.30;82.00;;;;;;5031177;28;19912;-89
2023/09/14 08:50:14;;;;;;;;;;;16.40;80.30;;;;;;5020105;28;19913;-90
2023/09/14 08:52:40;;;;;;;;;;;16.50;79.20;;;;;;5015529;28;19929;-90
2023/09/14 08:55:06;;;;;;;;;;;16.40;79.80;;;;;;5022142;28;19940;-90
2023/09/14 08:57:32;;;;;;;;;;;16.50;80.70;;;;;;5027797;28;20151;-91
2023/09/14 08:59:59;;;;;;;;;;;16.50;80.00;;;;;;5025732;28;20081;-90
2023/09/14 09:02:27;;;;;;;;;;;16.60;79.20;;;;;;5010352;28;20385;-87
2023/09/14 09:04:52;;;;;;;;;;;16.60;79.80;;;;;;5034997;28;19917;-88
2023/09/14 09:07:18;;;;;;;;;;;16.70;80.10;;;;;;5022289;28;19917;-89
2023/09/14 09:09:45;;;;;;;;;;;16.80;79.40;;;;;;5016578;28;19913;-89
2023/09/14 09:12:10;;;;;;;;;;;16.80;78.10;;;;;;5015623;28;20345;-90
2023/09/14 09:14:37;;;;;;;;;;;16.80;78.60;;;;;;5022981;28;19909;-88
2023/09/14 09:17:03;;;;;;;;;;;17.00;79.00;;;;;;5022580;28;19913;-88
2023/09/14 09:19:28;;;;;;;;;;;17.10;77.00;;;;;;5045516;28;19909;-88
2023/09/14 09:21:54;;;;;;;;;;;17.30;76.20;;;;;;5045759;28;19917;-88
2023/09/14 09:24:30;;;;;;;;;;;17.30;76.50;;;;;;5019503;28;19936;-89
2023/09/14 09:26:55;;;;;;;;;;;17.20;75.80;;;;;;5046164;28;19913;-90
2023/09/14 09:29:22;;;;;;;;;;;17.10;74.80;;;;;;5022533;28;19914;-90
2023/09/14 09:31:50;;;;;;;;;;;17.10;73.50;;;;;;5032898;28;19919;-89
2023/09/14 09:34:19;;;;;;;;;;;17.20;73.80;;;;;;5033472;28;20389;-90
2023/09/14 09:36:44;;;;;;;;;;;17.20;72.80;;;;;;5028175;28;19913;-90
2023/09/14 09:39:13;;;;;;;;;;;17.30;72.50;;;;;;5026700;28;20004;-89
2023/09/14 09:41:39;;;;;;;;;;;17.50;70.10;;;;;;5042490;28;19912;-90
2023/09/14 09:44:13;;;;;;;;;;;17.30;71.30;;;;;;5029171;28;19925;-90
2023/09/14 09:46:39;;;;;;;;;;;17.40;73.60;;;;;;5023658;28;20012;-90
2023/09/14 09:49:22;;;;;;;;;;;17.30;72.60;;;;;;5023448;28;20348;-90
2023/09/14 09:51:49;;;;;;;;;;;17.60;70.40;;;;;;5029493;28;19959;-89
2023/09/14 09:54:15;;;;;;;;;;;17.50;71.10;;;;;;5031273;28;19919;-90
2023/09/14 09:56:40;;;;;;;;;;;17.30;71.00;;;;;;5031836;28;19912;-90
2023/09/14 09:59:09;;;;;;;;;;;17.30;69.70;;;;;;5029047;28;20338;-89
2023/09/14 10:01:43;;;;;;;;;;;17.30;70.80;;;;;;5026943;28;20296;-90
2023/09/14 10:04:13;;;;;;;;;;;17.20;69.40;;;;;;5031071;28;19913;-92
2023/09/14 10:06:38;;;;;;;;;;;17.10;69.80;;;;;;5024254;28;19966;-91
2023/09/14 10:09:08;;;;;;;;;;;17.10;71.70;;;;;;5025112;28;20366;-91
2023/09/14 10:11:34;;;;;;;;;;;17.10;70.10;;;;;;5026806;28;19913;-91
2023/09/14 10:14:03;;;;;;;;;;;17.10;70.30;;;;;;5026014;28;20394;-91
2023/09/14 10:16:30;;;;;;;;;;;17.10;67.90;;;;;;5029190;28;19909;-91
2023/09/14 10:18:56;;;;;;;;;;;17.10;69.60;;;;;;5022595;28;19944;-91
2023/09/14 10:21:22;;;;;;;;;;;17.10;69.90;;;;;;5049569;28;19917;-91
2023/09/14 10:23:49;;;;;;;;;;;17.30;68.20;;;;;;5024500;28;20404;-91
2023/09/14 10:26:15;;;;;;;;;;;17.30;68.30;;;;;;5055489;28;19913;-89
2023/09/14 10:28:40;;;;;;;;;;;17.30;68.20;;;;;;5015710;28;20003;-91
2023/09/14 10:31:06;;;;;;;;;;;17.40;70.70;;;;;;5018827;28;19959;-89
2023/09/14 10:33:32;;;;;;;;;;;17.50;68.50;;;;;;5023321;28;19916;-89
2023/09/14 10:35:59;;;;;;;;;;;17.50;70.70;;;;;;5027584;28;19919;-90
2023/09/14 10:38:25;;;;;;;;;;;17.60;70.70;;;;;;5049578;28;19909;-90
2023/09/14 10:40:54;;;;;;;;;;;17.60;70.30;;;;;;5023482;28;19917;-90
2023/09/14 10:43:19;;;;;;;;;;;17.60;69.00;;;;;;5020938;28;19996;-91
2023/09/14 10:45:46;;;;;;;;;;;17.60;69.20;;;;;;5029069;28;19948;-89
2023/09/14 10:48:15;;;;;;;;;;;17.60;66.10;;;;;;5053026;28;19936;-87
2023/09/14 10:50:41;;;;;;;;;;;17.60;67.30;;;;;;5020760;28;19913;-88
2023/09/14 10:53:06;;;;;;;;;;;17.60;67.80;;;;;;5038023;28;20293;-87
2023/09/14 10:55:35;;;;;;;;;;;17.60;67.20;;;;;;5042570;28;20007;-88
2023/09/14 10:58:01;;;;;;;;;;;17.70;66.00;;;;;;5042252;28;19924;-89
2023/09/14 11:00:31;;;;;;;;;;;17.60;68.00;;;;;;5052469;28;20274;-88
2023/09/14 11:02:57;;;;;;;;;;;17.60;67.10;;;;;;5036623;28;19925;-87
2023/09/14 11:05:24;;;;;;;;;;;17.60;67.60;;;;;;5042129;28;19909;-88
2023/09/14 11:07:57;;;;;;;;;;;17.80;67.30;;;;;;5018488;28;19913;-88
2023/09/14 11:10:23;;;;;;;;;;;17.90;68.10;;;;;;5039897;28;19913;-89
2023/09/14 11:12:49;;;;;;;;;;;18.00;65.00;;;;;;5017452;28;19913;-87
2023/09/14 11:15:22;;;;;;;;;;;17.90;64.10;;;;;;5013431;28;19920;-88
2023/09/14 11:17:48;;;;;;;;;;;17.90;63.50;;;;;;5019822;28;19909;-88
2023/09/14 11:20:20;;;;;;;;;;;17.90;65.30;;;;;;5028346;28;19932;-89
2023/09/14 11:22:49;;;;;;;;;;;17.90;65.50;;;;;;5026162;28;19943;-88
2023/09/14 11:25:28;;;;;;;;;;;18.00;62.40;;;;;;5045068;28;19909;-88
2023/09/14 11:27:54;;;;;;;;;;;18.00;63.60;;;;;;5038460;28;19921;-88
2023/09/14 11:30:20;;;;;;;;;;;18.00;66.60;;;;;;5020212;28;20000;-88
2023/09/14 11:32:46;;;;;;;;;;;18.10;64.10;;;;;;5039152;28;19921;-88
2023/09/14 11:35:12;;;;;;;;;;;18.10;63.50;;;;;;5017382;28;20033;-89
2023/09/14 11:37:39;;;;;;;;;;;18.10;63.10;;;;;;5050449;28;20369;-88
2023/09/14 11:40:10;;;;;;;;;;;18.30;64.60;;;;;;5046165;28;20404;-88
2023/09/14 11:42:54;;;;;;;;;;;18.50;63.40;;;;;;5047813;28;19912;-89
2023/09/14 11:45:21;;;;;;;;;;;18.60;63.70;;;;;;5028762;28;20366;-88
2023/09/14 11:47:47;;;;;;;;;;;18.60;64.40;;;;;;5028119;28;19908;-88
2023/09/14 11:50:12;;;;;;;;;;;18.60;64.20;;;;;;5029560;28;19910;-88
2023/09/14 11:52:38;;;;;;;;;;;18.60;64.80;;;;;;5023841;28;19913;-85
2023/09/14 11:55:06;;;;;;;;;;;18.80;63.50;;;;;;5017263;28;20015;-91
2023/09/14 11:57:32;;;;;;;;;;;18.80;63.10;;;;;;5019761;28;19914;-89
2023/09/14 11:59:59;;;;;;;;;;;19.00;62.00;;;;;;5041741;28;19952;-93
2023/09/14 12:02:24;;;;;;;;;;;19.00;61.50;;;;;;5022552;28;19916;-91
2023/09/14 12:04:51;;;;;;;;;;;18.90;62.80;;;;;;5035739;28;19909;-89
2023/09/14 12:07:19;;;;;;;;;;;19.00;62.30;;;;;;5040565;28;19921;-90
2023/09/14 12:09:44;;;;;;;;;;;18.90;64.70;;;;;;5049943;28;19917;-90
2023/09/14 12:12:10;;;;;;;;;;;19.00;62.90;;;;;;5037091;28;19940;-90
2023/09/14 12:14:40;;;;;;;;;;;19.10;63.80;;;;;;5034875;28;19916;-90
2023/09/14 12:17:22;;;;;;;;;;;19.20;61.10;;;;;;5035606;28;20391;-90
2023/09/14 12:19:54;;;;;;;;;;;19.20;64.10;;;;;;5021443;28;19913;-91
2023/09/14 12:22:20;;;;;;;;;;;19.30;64.40;;;;;;5024698;28;19993;-90
2023/09/14 12:24:46;;;;;;;;;;;19.40;60.50;;;;;;5022991;28;19931;-93
2023/09/14 12:27:15;;;;;;;;;;;19.60;60.80;;;;;;5032342;28;19913;-93
2023/09/14 12:29:44;;;;;;;;;;;19.60;60.50;;;;;;5020076;28;19959;-92
2023/09/14 12:32:33;;;;;;;;;;;19.70;60.90;;;;;;5056812;28;19943;-91
2023/09/14 12:34:58;;;;;;;;;;;19.60;61.90;;;;;;5019820;28;19921;-93
2023/09/14 12:37:30;;;;;;;;;;;19.60;63.40;;;;;;5031885;28;20313;-94
2023/09/14 12:43:28;;;;;;;;;;;19.60;61.40;;;;;;5037258;28;19924;-93
2023/09/14 12:45:54;;;;;;;;;;;19.60;62.50;;;;;;5010795;28;19925;-92
2023/09/14 12:48:19;;;;;;;;;;;19.80;61.40;;;;;;5026713;28;19962;-88
2023/09/14 12:50:45;;;;;;;;;;;19.70;60.40;;;;;;5038527;28;19924;-90
2023/09/14 12:53:13;;;;;;;;;;;19.60;59.90;;;;;;5029183;28;19912;-91
2023/09/14 12:55:45;;;;;;;;;;;19.60;61.80;;;;;;5024117;28;19913;-89
2023/09/14 12:58:11;;;;;;;;;;;19.60;61.80;;;;;;5032261;28;19912;-92
2023/09/14 13:00:38;;;;;;;;;;;19.50;59.10;;;;;;5026646;28;19927;-92
2023/09/14 13:03:23;;;;;;;;;;;19.30;61.80;;;;;;5027684;28;19917;-93
2023/09/14 13:06:05;;;;;;;;;;;19.30;61.90;;;;;;5026464;28;19925;-92
2023/09/14 13:12:28;;;;;;;;;;;19.10;63.40;;;;;;5046021;28;19924;-91
2023/09/14 13:15:03;;;;;;;;;;;19.20;60.90;;;;;;4971778;28;20384;-93
2023/09/14 13:17:52;;;;;;;;;;;19.30;59.10;;;;;;5029175;28;19913;-92
2023/09/14 13:20:18;;;;;;;;;;;19.30;60.50;;;;;;5029334;28;19909;-91
2023/09/14 13:22:43;;;;;;;;;;;19.50;60.60;;;;;;5029054;28;20373;-90
2023/09/14 13:25:09;;;;;;;;;;;19.70;60.10;;;;;;5021950;28;19917;-92
2023/09/14 13:27:50;;;;;;;;;;;19.80;60.00;;;;;;5023696;28;19912;-92
2023/09/14 13:30:16;;;;;;;;;;;19.90;61.00;;;;;;5040116;28;19920;-92
2023/09/14 13:32:42;;;;;;;;;;;19.80;58.90;;;;;;5024354;28;20343;-93
2023/09/14 13:35:09;;;;;;;;;;;19.90;60.30;;;;;;5019156;28;19917;-93
2023/09/14 13:37:49;;;;;;;;;;;19.80;61.10;;;;;;5024659;28;20003;-93
2023/09/14 13:42:46;;;;;;;;;;;19.70;61.60;;;;;;5044973;28;19913;-93
2023/09/14 13:45:13;;;;;;;;;;;19.60;60.90;;;;;;5032435;28;19955;-92
2023/09/14 13:47:39;;;;;;;;;;;19.60;62.90;;;;;;5027252;28;20316;-93
2023/09/14 13:50:10;;;;;;;;;;;19.50;60.10;;;;;;5023884;28;19925;-92
2023/09/14 13:52:36;;;;;;;;;;;19.30;61.50;;;;;;5033946;28;19901;-92
2023/09/14 13:55:04;;;;;;;;;;;19.20;60.90;;;;;;5037214;28;19939;-92
2023/09/14 13:57:30;;;;;;;;;;;19.30;62.70;;;;;;5034736;28;19973;-90
2023/09/14 13:59:55;;;;;;;;;;;19.20;63.00;;;;;;5024744;28;19952;-92
2023/09/14 14:02:34;;;;;;;;;;;19.30;61.10;;;;;;5027876;28;19921;-92
2023/09/14 14:05:00;;;;;;;;;;;19.50;61.50;;;;;;5045527;28;19917;-93
2023/09/14 14:07:25;;;;;;;;;;;19.60;59.80;;;;;;5043565;28;20004;-92
2023/09/14 14:09:51;;;;;;;;;;;19.70;59.90;;;;;;5029646;28;19983;-92
2023/09/14 14:12:19;;;;;;;;;;;19.70;61.70;;;;;;5042466;28;19917;-93
2023/09/14 14:14:56;;;;;;;;;;;19.60;59.60;;;;;;5061092;28;19912;-94
2023/09/14 14:17:24;;;;;;;;;;;19.60;61.00;;;;;;5033432;28;19910;-93
2023/09/14 14:19:49;;;;;;;;;;;19.50;63.20;;;;;;5032663;28;19913;-93
2023/09/14 14:22:18;;;;;;;;;;;19.50;63.60;;;;;;5039515;28;19913;-93
2023/09/14 14:24:43;;;;;;;;;;;19.40;63.90;;;;;;5039820;28;19924;-92